Search for airport 
image banner adimage banner ad
image banner ad

SVOZ - Banco Occidental De Descuento

Located in Maracaibo, Venezuela

ICAO - SVOZ, IATA -

Data provided by Airmate  

General information

Coordinates: N10°39'57" W71°37'6"
Elevation is 209 feet MSL.
 
Rated:
View ratings: [VIEW]


View others Airports in Apure

Operational data

Open for public use
Current time UTC:
Current local time:
Weather at : SVMC - Maracaibo / La Chinita Intl ( 17 km )
TAF: TAF SVMC 031600Z 0312/0412 07006KT 9999 SCT016 TX35/19Z TN25/09Z TEMPO 0312/0315 VRB03KT FEW013 FM031600 18006KT 9999 SCT013
View NOTAMs / SUP AIP / TFR affecting this airport [VIEW]
Communications frequencies: [VIEW]

Runways:

Airport contact information

Address: Maracaibo Venezuela

Satellite view of SVOZ